Time;durP1;ratioP1;P1;durP2;ratioP2;P2;SDS_P1;SDS_P2;PMS_P1;PMS_P2;Temp;Humidity;BMP_temperature;BMP_pressure;BME280_temperature;BME280_humidity;BME280_pressure;Samples;Min_cycle;Max_cycle;Signal;HPM_P1;HPM_P2
2022/07/16 00:01:25;;;;;;;;;10.00;8.00;;;29.67;97744.19;;;;118980;1189;25105;-67
2022/07/16 00:03:56;;;;;;;;;11.00;8.00;;;29.66;97745.09;;;;119010;1189;25079;-67
2022/07/16 00:06:25;;;;;;;;;8.75;8.75;;;29.65;97748.10;;;;118995;1189;25606;-67
2022/07/16 00:08:53;;;;;;;;;9.50;8.50;;;29.64;97748.86;;;;119017;1189;24943;-69
2022/07/16 00:11:22;;;;;;;;;9.50;7.75;;;29.63;97748.91;;;;119041;1189;25049;-68
2022/07/16 00:13:50;;;;;;;;;8.25;7.75;;;29.63;97748.91;;;;119053;1189;24818;-68
2022/07/16 00:16:18;;;;;;;;;9.50;7.25;;;29.64;97746.77;;;;119011;1189;25067;-68
2022/07/16 00:21:49;;;;;;;;;8.25;6.50;;;29.71;97738.96;;;;118721;1190;24709;-66
2022/07/16 00:24:18;;;;;;;;;5.50;4.75;;;29.70;97740.67;;;;118967;1189;25654;-66
2022/07/16 00:26:47;;;;;;;;;9.25;7.25;;;29.68;97740.30;;;;118986;1189;25665;-68
2022/07/16 00:29:17;;;;;;;;;8.25;7.00;;;29.66;97739.41;;;;119040;1189;25935;-67
2022/07/16 00:31:47;;;;;;;;;10.00;9.25;;;29.67;97741.09;;;;119084;1187;25495;-68
2022/07/16 00:34:15;;;;;;;;;10.00;8.50;;;29.67;97738.64;;;;119057;1188;24842;-68
2022/07/16 00:36:43;;;;;;;;;8.50;8.50;;;29.68;97740.48;;;;118962;1189;24815;-68
2022/07/16 00:39:12;;;;;;;;;7.75;7.25;;;29.67;97739.40;;;;118976;1188;25343;-68
2022/07/16 00:41:42;;;;;;;;;7.67;7.67;;;29.67;97742.08;;;;118973;1189;24786;-67
2022/07/16 00:44:12;;;;;;;;;6.50;6.50;;;29.67;97739.73;;;;119087;1188;26433;-67
2022/07/16 00:46:40;;;;;;;;;10.00;8.33;;;29.68;97737.23;;;;119058;1189;25272;-66
2022/07/16 00:49:10;;;;;;;;;6.25;6.25;;;29.67;97733.73;;;;119003;1190;25543;-66
2022/07/16 00:51:47;;;;;;;;;7.25;7.25;;;29.68;97729.15;;;;119124;1188;24957;-68
2022/07/16 00:54:16;;;;;;;;;7.50;5.50;;;29.70;97720.14;;;;119128;1188;24754;-67
2022/07/16 00:56:44;;;;;;;;;8.50;7.75;;;29.69;97713.29;;;;119101;1187;26321;-65
2022/07/16 00:59:13;;;;;;;;;8.33;8.33;;;29.68;97717.60;;;;119109;1189;25113;-67
2022/07/16 01:01:41;;;;;;;;;8.75;7.75;;;29.67;97726.75;;;;119125;1188;25009;-67
2022/07/16 01:04:14;;;;;;;;;5.75;5.25;;;29.70;97731.83;;;;119114;1188;25361;-68
2022/07/16 01:06:45;;;;;;;;;7.75;7.75;;;29.69;97731.23;;;;118926;1190;25804;-68
2022/07/16 01:09:14;;;;;;;;;8.00;8.00;;;29.68;97725.25;;;;119159;1188;25598;-67
2022/07/16 01:11:44;;;;;;;;;9.75;8.50;;;29.68;97718.23;;;;119000;1189;25553;-67
2022/07/16 01:14:14;;;;;;;;;8.50;6.25;;;29.69;97712.05;;;;119139;1187;24941;-66
2022/07/16 01:16:42;;;;;;;;;6.00;5.50;;;29.70;97701.98;;;;119123;1188;25489;-66
2022/07/16 01:19:12;;;;;;;;;7.25;7.25;;;29.68;97701.70;;;;119025;1189;25788;-67
2022/07/16 01:21:40;;;;;;;;;7.25;7.25;;;29.67;97706.79;;;;119128;1188;25547;-66
2022/07/16 01:24:08;;;;;;;;;7.25;7.25;;;29.70;97708.61;;;;119110;1187;24771;-66
2022/07/16 01:26:36;;;;;;;;;5.00;5.00;;;29.71;97703.86;;;;119102;1188;25333;-67
2022/07/16 01:29:04;;;;;;;;;8.00;8.00;;;29.69;97701.87;;;;119002;1189;26438;-66
2022/07/16 01:31:32;;;;;;;;;7.75;7.00;;;29.67;97702.21;;;;119107;1187;25282;-66
2022/07/16 01:36:54;;;;;;;;;9.25;4.25;;;29.68;97704.50;;;;119106;1186;25452;-66
2022/07/16 01:39:24;;;;;;;;;6.25;6.25;;;29.67;97700.48;;;;119134;1188;25690;-66
2022/07/16 01:41:52;;;;;;;;;8.33;6.00;;;29.66;97697.33;;;;119130;1187;25635;-66
2022/07/16 01:44:23;;;;;;;;;8.50;6.50;;;29.65;97697.31;;;;119101;1188;24793;-66
2022/07/16 01:46:52;;;;;;;;;6.75;6.75;;;29.67;97692.45;;;;119107;1186;24908;-66
2022/07/16 01:49:21;;;;;;;;;8.00;8.00;;;29.66;97695.59;;;;119110;1187;26091;-66
2022/07/16 01:51:49;;;;;;;;;6.25;6.25;;;29.66;97691.08;;;;119115;1188;24832;-65
2022/07/16 01:54:17;;;;;;;;;6.25;6.25;;;29.66;97690.17;;;;119106;1188;26050;-66
2022/07/16 01:56:45;;;;;;;;;6.33;6.33;;;29.65;97683.77;;;;119102;1189;25395;-66
2022/07/16 01:59:13;;;;;;;;;5.75;4.25;;;29.64;97674.73;;;;119101;1188;25236;-65
2022/07/16 02:01:41;;;;;;;;;9.25;7.50;;;29.63;97676.16;;;;119075;1188;25514;-67
2022/07/16 02:04:09;;;;;;;;;8.33;8.00;;;29.62;97681.63;;;;118989;1189;25396;-66
2022/07/16 02:06:37;;;;;;;;;9.25;6.75;;;29.61;97678.54;;;;118982;1189;25062;-66
2022/07/16 02:09:04;;;;;;;;;8.00;7.00;;;29.61;97680.05;;;;118981;1190;25340;-66
2022/07/16 02:11:32;;;;;;;;;8.00;8.00;;;29.60;97680.02;;;;118979;1190;25499;-66
2022/07/16 02:14:00;;;;;;;;;7.50;7.50;;;29.60;97677.14;;;;118956;1190;25681;-65
2022/07/16 02:16:28;;;;;;;;;8.00;8.00;;;29.59;97675.73;;;;119020;1187;25967;-65
2022/07/16 02:18:56;;;;;;;;;7.25;6.75;;;29.61;97676.17;;;;118971;1190;25612;-66
2022/07/16 02:21:24;;;;;;;;;9.25;8.75;;;29.61;97676.31;;;;119026;1187;25713;-66
2022/07/16 02:23:52;;;;;;;;;8.25;7.25;;;29.61;97674.92;;;;119027;1189;25029;-67
2022/07/16 02:26:20;;;;;;;;;6.75;6.25;;;29.60;97673.81;;;;119031;1189;24868;-67
2022/07/16 02:28:49;;;;;;;;;8.25;6.75;;;29.59;97675.80;;;;118991;1189;25560;-66
2022/07/16 02:31:16;;;;;;;;;8.00;5.25;;;29.59;97679.30;;;;119000;1187;25361;-66
2022/07/16 02:33:44;;;;;;;;;6.00;6.00;;;29.58;97677.30;;;;118959;1190;25697;-66
2022/07/16 02:36:12;;;;;;;;;7.25;7.25;;;29.58;97675.67;;;;119025;1188;25637;-67
2022/07/16 02:38:40;;;;;;;;;8.50;7.75;;;29.59;97675.90;;;;119025;1188;25480;-67
2022/07/16 02:41:08;;;;;;;;;7.50;7.50;;;29.59;97677.51;;;;119035;1188;25491;-66
2022/07/16 02:43:36;;;;;;;;;6.25;6.25;;;29.58;97677.02;;;;119039;1188;25068;-67
2022/07/16 02:46:04;;;;;;;;;7.75;6.00;;;29.57;97675.05;;;;119043;1187;24778;-67
2022/07/16 02:48:32;;;;;;;;;5.00;5.00;;;29.57;97675.59;;;;119034;1188;25345;-67
2022/07/16 02:51:00;;;;;;;;;5.25;5.25;;;29.57;97681.34;;;;119042;1187;25153;-67
2022/07/16 02:53:28;;;;;;;;;8.25;6.75;;;29.56;97683.94;;;;118998;1189;24993;-67
2022/07/16 02:55:56;;;;;;;;;7.25;7.25;;;29.57;97680.47;;;;119004;1189;25080;-66
2022/07/16 02:58:24;;;;;;;;;6.50;6.00;;;29.57;97676.91;;;;119007;1189;25126;-67
2022/07/16 03:00:51;;;;;;;;;8.75;8.75;;;29.57;97677.67;;;;119138;1188;25940;-66
2022/07/16 03:03:19;;;;;;;;;8.50;8.50;;;29.56;97674.71;;;;119390;1187;25372;-66
2022/07/16 03:05:47;;;;;;;;;7.75;7.75;;;29.56;97674.76;;;;119395;1187;25662;-66
2022/07/16 03:08:15;;;;;;;;;9.25;9.25;;;29.54;97673.23;;;;119378;1187;25632;-67
2022/07/16 03:10:44;;;;;;;;;8.00;8.00;;;29.54;97678.27;;;;119240;1188;25318;-67
2022/07/16 03:13:13;;;;;;;;;7.00;7.00;;;29.57;97675.12;;;;118921;1189;25681;-67
2022/07/16 03:15:41;;;;;;;;;6.75;6.75;;;29.57;97679.09;;;;118998;1190;25583;-67
2022/07/16 03:18:09;;;;;;;;;11.25;9.25;;;29.55;97680.14;;;;118981;1189;25750;-67
2022/07/16 03:20:37;;;;;;;;;7.75;7.00;;;29.54;97680.14;;;;118878;1190;25685;-65
2022/07/16 03:23:04;;;;;;;;;8.25;6.50;;;29.53;97683.38;;;;118960;1189;25405;-66
2022/07/16 03:25:32;;;;;;;;;11.50;11.25;;;29.53;97682.38;;;;118966;1189;25351;-66
2022/07/16 03:28:00;;;;;;;;;9.00;9.00;;;29.51;97686.95;;;;118991;1189;25265;-66
2022/07/16 03:30:28;;;;;;;;;9.00;8.67;;;29.56;97687.61;;;;118997;1189;25113;-66
2022/07/16 03:32:57;;;;;;;;;9.50;9.50;;;29.55;97688.62;;;;119038;1187;24820;-67
2022/07/16 03:35:25;;;;;;;;;9.25;7.50;;;29.53;97692.45;;;;118992;1189;25685;-67
2022/07/16 03:40:40;;;;;;;;;9.00;8.25;;;29.54;97679.22;;;;119032;1189;25665;-65
2022/07/16 03:43:08;;;;;;;;;10.25;9.75;;;29.52;97680.66;;;;118984;1190;25405;-64
2022/07/16 03:45:36;;;;;;;;;10.00;9.00;;;29.50;97678.31;;;;118976;1190;25165;-67
2022/07/16 03:48:04;;;;;;;;;9.50;8.25;;;29.51;97668.52;;;;118985;1189;25700;-66
2022/07/16 03:50:32;;;;;;;;;11.00;9.75;;;29.51;97673.69;;;;119006;1189;25508;-65
2022/07/16 03:53:00;;;;;;;;;10.50;10.00;;;29.53;97678.03;;;;119053;1188;26489;-68
2022/07/16 03:55:30;;;;;;;;;10.00;9.25;;;29.53;97681.06;;;;119092;1188;25806;-65
2022/07/16 03:57:58;;;;;;;;;7.00;7.00;;;29.52;97689.48;;;;119019;1189;24739;-65
2022/07/16 04:00:26;;;;;;;;;9.75;9.75;;;29.49;97691.41;;;;118995;1189;25071;-64
2022/07/16 04:02:58;;;;;;;;;9.00;9.00;;;29.48;97695.39;;;;119065;1189;25315;-64
2022/07/16 04:05:26;;;;;;;;;10.75;9.50;;;29.48;97698.72;;;;119159;1188;25112;-66
2022/07/16 04:07:54;;;;;;;;;8.75;7.50;;;29.45;97700.77;;;;119123;1187;25391;-66
2022/07/16 04:10:22;;;;;;;;;8.67;8.67;;;29.44;97697.15;;;;119004;1189;25434;-65
2022/07/16 04:12:50;;;;;;;;;8.00;6.50;;;29.41;97701.31;;;;118996;1189;25642;-64
2022/07/16 04:15:17;;;;;;;;;8.75;6.50;;;29.41;97710.41;;;;118956;1188;25666;-66
2022/07/16 04:17:45;;;;;;;;;12.00;9.50;;;29.39;97703.28;;;;118992;1190;24851;-68
2022/07/16 04:20:14;;;;;;;;;13.00;12.67;;;29.36;97707.33;;;;119041;1188;25487;-67
2022/07/16 04:22:42;;;;;;;;;9.50;7.50;;;29.34;97714.73;;;;119098;1188;25641;-64
2022/07/16 04:25:10;;;;;;;;;8.00;6.25;;;29.34;97717.52;;;;119072;1189;24690;-65
2022/07/16 04:27:43;;;;;;;;;13.00;11.75;;;29.31;97713.11;;;;119001;1189;25058;-66
2022/07/16 04:30:11;;;;;;;;;9.75;8.25;;;29.30;97716.20;;;;119090;1188;25510;-66
2022/07/16 04:32:41;;;;;;;;;12.25;8.00;;;29.30;97713.61;;;;119007;1188;25675;-66
2022/07/16 04:35:11;;;;;;;;;10.00;10.00;;;29.29;97718.23;;;;118993;1189;25384;-66
2022/07/16 04:37:39;;;;;;;;;9.50;9.00;;;29.31;97720.73;;;;118970;1190;25609;-66
2022/07/16 04:40:09;;;;;;;;;9.50;9.50;;;29.27;97725.83;;;;118999;1190;25568;-66
2022/07/16 04:42:38;;;;;;;;;8.25;8.25;;;29.28;97728.83;;;;118981;1189;26105;-64
2022/07/16 04:45:07;;;;;;;;;8.50;8.00;;;29.28;97727.95;;;;119111;1187;25296;-64
2022/07/16 04:47:35;;;;;;;;;10.50;9.25;;;29.29;97725.23;;;;119004;1189;25316;-65
2022/07/16 04:50:04;;;;;;;;;11.00;9.75;;;29.28;97719.10;;;;119081;1189;25416;-64
2022/07/16 04:52:32;;;;;;;;;8.75;8.50;;;29.24;97716.84;;;;118988;1189;25353;-64
2022/07/16 04:55:00;;;;;;;;;9.25;9.25;;;29.19;97716.13;;;;119069;1188;25218;-65
2022/07/16 04:57:28;;;;;;;;;8.25;6.75;;;29.17;97713.45;;;;119020;1188;25358;-64
2022/07/16 04:59:56;;;;;;;;;7.75;7.50;;;29.15;97708.98;;;;119106;1188;25059;-64
2022/07/16 05:05:10;;;;;;;;;6.00;6.00;;;29.09;97696.07;;;;119045;1188;25107;-65
2022/07/16 05:07:38;;;;;;;;;15.25;14.25;;;29.11;97704.58;;;;119013;1187;26152;-59
2022/07/16 05:18:04;;;;;;;;;9.75;8.25;;;28.19;97700.23;;;;117465;1205;23250;-64
2022/07/16 05:20:32;;;;;;;;;10.75;9.00;;;28.48;97699.09;;;;118552;1193;25579;-62
2022/07/16 05:22:59;;;;;;;;;13.67;11.33;;;28.68;97698.20;;;;118512;1192;25509;-63
2022/07/16 05:25:28;;;;;;;;;11.25;11.25;;;28.78;97701.18;;;;118234;1194;25249;-63
2022/07/16 05:27:56;;;;;;;;;11.50;10.00;;;28.86;97704.73;;;;118519;1193;25242;-65
2022/07/16 05:30:24;;;;;;;;;9.25;7.25;;;28.94;97708.89;;;;118447;1193;25190;-64
2022/07/16 05:32:52;;;;;;;;;10.25;9.25;;;28.97;97714.02;;;;118535;1193;24897;-63
2022/07/16 05:35:20;;;;;;;;;13.75;11.00;;;29.03;97720.11;;;;118545;1192;26051;-64
2022/07/16 05:37:48;;;;;;;;;10.00;8.00;;;29.08;97722.67;;;;118945;1189;25121;-75
2022/07/16 05:40:16;;;;;;;;;9.25;7.75;;;29.15;97718.40;;;;118938;1190;25442;-72
2022/07/16 05:42:44;;;;;;;;;12.00;9.33;;;29.13;97719.95;;;;118958;1190;26197;-71
2022/07/16 05:45:17;;;;;;;;;9.50;7.00;;;29.18;97719.92;;;;118950;1189;25662;-68
2022/07/16 05:47:45;;;;;;;;;13.75;11.00;;;29.17;97716.06;;;;118942;1190;25936;-77
2022/07/16 05:50:13;;;;;;;;;11.75;9.00;;;29.16;97714.30;;;;119394;1187;25542;-63
2022/07/16 05:52:41;;;;;;;;;10.75;9.75;;;29.47;97717.50;;;;119276;1186;26025;-66
2022/07/16 05:55:09;;;;;;;;;11.50;9.00;;;29.92;97708.48;;;;119556;1187;25840;-63
2022/07/16 05:57:38;;;;;;;;;8.75;8.25;;;30.00;97710.84;;;;119008;1188;24889;-63
2022/07/16 06:00:10;;;;;;;;;9.75;7.25;;;29.58;97716.32;;;;119249;1188;25075;-63
2022/07/16 06:02:41;;;;;;;;;10.25;10.25;;;29.32;97715.39;;;;119361;1186;26518;-64
2022/07/16 06:05:10;;;;;;;;;8.25;6.75;;;29.17;97715.80;;;;119384;1186;25648;-67
2022/07/16 06:07:38;;;;;;;;;9.75;8.25;;;29.03;97713.45;;;;119386;1188;25408;-68
2022/07/16 06:10:06;;;;;;;;;9.75;8.50;;;28.92;97711.73;;;;119123;1188;25764;-69
2022/07/16 06:12:34;;;;;;;;;10.75;8.50;;;29.01;97712.89;;;;119740;1186;25176;-69
2022/07/16 06:15:03;;;;;;;;;9.00;9.00;;;29.60;97711.54;;;;119917;1185;25362;-62
2022/07/16 06:17:30;;;;;;;;;9.50;7.50;;;30.09;97713.44;;;;119891;1186;25418;-65
2022/07/16 06:19:58;;;;;;;;;8.25;8.25;;;30.42;97716.55;;;;119919;1187;25699;-64
2022/07/16 06:22:26;;;;;;;;;8.50;8.00;;;30.72;97714.65;;;;119704;1188;24747;-64
2022/07/16 06:24:54;;;;;;;;;9.50;9.50;;;30.82;97718.63;;;;119664;1186;25842;-62
2022/07/16 06:27:22;;;;;;;;;10.75;10.75;;;30.78;97716.34;;;;119117;1190;25298;-67
2022/07/16 06:29:49;;;;;;;;;10.25;9.00;;;30.44;97715.41;;;;118988;1187;25440;-66
2022/07/16 06:32:17;;;;;;;;;10.25;10.25;;;29.97;97707.60;;;;119299;1186;25613;-67
2022/07/16 06:34:45;;;;;;;;;7.50;7.00;;;29.62;97709.45;;;;119310;1186;25568;-66
2022/07/16 06:37:13;;;;;;;;;8.50;7.00;;;29.36;97714.61;;;;119304;1187;26131;-66
2022/07/16 06:39:41;;;;;;;;;12.50;12.25;;;29.18;97718.75;;;;119266;1187;25779;-65
2022/07/16 06:42:09;;;;;;;;;9.00;9.00;;;29.04;97711.71;;;;119316;1187;25900;-65
2022/07/16 06:44:39;;;;;;;;;9.25;7.75;;;28.96;97707.71;;;;119305;1186;25112;-65
2022/07/16 06:47:07;;;;;;;;;9.25;9.25;;;28.87;97704.43;;;;119299;1187;25783;-65
2022/07/16 06:49:35;;;;;;;;;10.00;8.25;;;28.84;97702.44;;;;119037;1187;24918;-65
2022/07/16 06:52:03;;;;;;;;;9.75;9.50;;;28.79;97706.68;;;;119303;1186;24892;-65
2022/07/16 06:54:31;;;;;;;;;11.75;10.75;;;28.71;97713.51;;;;119316;1186;25052;-66
2022/07/16 06:56:59;;;;;;;;;8.50;8.50;;;28.66;97715.39;;;;119300;1187;25832;-65
2022/07/16 06:59:26;;;;;;;;;13.00;9.75;;;28.70;97714.42;;;;119299;1187;25958;-66
2022/07/16 07:01:54;;;;;;;;;12.25;10.75;;;28.66;97714.55;;;;119293;1186;25861;-66
2022/07/16 07:04:22;;;;;;;;;10.75;10.75;;;28.66;97716.42;;;;119218;1188;25318;-66
2022/07/16 07:06:50;;;;;;;;;9.00;8.75;;;28.65;97723.35;;;;119261;1186;25788;-65
2022/07/16 07:09:18;;;;;;;;;10.50;8.50;;;28.67;97726.77;;;;119264;1187;25388;-67
2022/07/16 07:11:46;;;;;;;;;12.75;12.75;;;28.63;97720.23;;;;119282;1186;25283;-65
2022/07/16 07:14:14;;;;;;;;;15.75;14.00;;;28.66;97718.98;;;;119271;1186;24893;-65
2022/07/16 07:16:41;;;;;;;;;11.50;10.25;;;28.68;97723.88;;;;119258;1187;25616;-64
2022/07/16 07:19:09;;;;;;;;;10.75;9.50;;;28.68;97724.55;;;;119244;1187;25733;-65
2022/07/16 07:21:37;;;;;;;;;14.25;10.50;;;28.68;97722.94;;;;119314;1187;25607;-67
2022/07/16 07:24:05;;;;;;;;;8.25;8.25;;;28.68;97730.73;;;;119290;1186;25072;-66
2022/07/16 07:26:53;;;;;;;;;10.00;8.50;;;28.76;97731.48;;;;119301;1188;25002;-66
2022/07/16 07:29:21;;;;;;;;;10.50;9.75;;;28.74;97734.23;;;;119042;1187;25636;-65
2022/07/16 07:31:49;;;;;;;;;9.00;9.00;;;28.71;97735.66;;;;119273;1187;29139;-65
2022/07/16 07:34:17;;;;;;;;;11.25;10.75;;;28.69;97737.86;;;;119280;1186;25921;-66
2022/07/16 07:36:44;;;;;;;;;11.25;11.25;;;28.72;97736.70;;;;119266;1187;25554;-65
2022/07/16 07:39:12;;;;;;;;;11.25;10.25;;;28.74;97743.15;;;;119270;1186;26321;-66
2022/07/16 07:41:40;;;;;;;;;15.50;11.00;;;28.73;97744.36;;;;119279;1186;25325;-66
2022/07/16 07:44:07;;;;;;;;;10.50;10.25;;;28.69;97745.93;;;;119271;1187;25627;-66
2022/07/16 07:46:36;;;;;;;;;10.75;10.00;;;28.71;97737.85;;;;119266;1186;24733;-67
2022/07/16 07:49:04;;;;;;;;;13.25;10.50;;;28.71;97734.23;;;;119062;1188;24825;-67
2022/07/16 07:51:32;;;;;;;;;11.50;11.25;;;28.73;97734.16;;;;119263;1187;24940;-66
2022/07/16 07:54:02;;;;;;;;;12.75;11.25;;;28.71;97736.62;;;;119264;1187;25664;-66
2022/07/16 07:56:30;;;;;;;;;13.75;11.50;;;28.72;97741.56;;;;119264;1187;25615;-67
2022/07/16 07:58:58;;;;;;;;;11.25;10.75;;;28.73;97741.23;;;;119268;1187;24941;-66
2022/07/16 08:01:25;;;;;;;;;12.75;9.25;;;28.71;97739.45;;;;119270;1186;25071;-66
2022/07/16 08:03:53;;;;;;;;;13.00;10.50;;;28.70;97745.31;;;;119260;1187;25420;-66
2022/07/16 08:06:22;;;;;;;;;9.50;8.75;;;28.73;97745.16;;;;119242;1187;26208;-66
2022/07/16 08:08:49;;;;;;;;;9.25;9.25;;;28.75;97743.35;;;;119217;1187;25375;-65
2022/07/16 08:11:17;;;;;;;;;8.50;8.25;;;28.76;97745.20;;;;119238;1188;24951;-68
2022/07/16 08:13:45;;;;;;;;;9.00;9.00;;;28.73;97748.44;;;;119232;1187;25335;-66
2022/07/16 08:16:33;;;;;;;;;23.33;18.33;;;28.86;97759.30;;;;119210;1187;25217;-67
2022/07/16 08:19:01;;;;;;;;;19.00;16.25;;;28.82;97763.17;;;;119215;1188;25428;-65
2022/07/16 08:21:28;;;;;;;;;15.50;13.75;;;28.79;97756.69;;;;119245;1188;25636;-68
2022/07/16 08:26:49;;;;;;;;;10.25;8.50;;;28.80;97756.23;;;;119232;1187;26317;-67
2022/07/16 08:29:17;;;;;;;;;9.25;7.50;;;28.79;97758.23;;;;119255;1188;25988;-68
2022/07/16 08:31:45;;;;;;;;;8.25;6.25;;;28.79;97753.99;;;;119229;1188;24975;-69
2022/07/16 08:34:13;;;;;;;;;6.75;6.75;;;28.80;97758.70;;;;119243;1187;25355;-72
2022/07/16 08:36:41;;;;;;;;;10.25;7.75;;;28.78;97759.52;;;;119242;1186;25317;-69
2022/07/16 08:39:08;;;;;;;;;8.00;8.00;;;28.80;97763.94;;;;119237;1186;25237;-71
2022/07/16 08:41:38;;;;;;;;;6.67;6.00;;;28.80;97758.86;;;;119242;1188;25294;-78
2022/07/16 08:44:06;;;;;;;;;9.50;7.50;;;28.80;97760.31;;;;119006;1187;26413;-73
2022/07/16 08:46:36;;;;;;;;;7.75;7.75;;;28.85;97755.17;;;;119026;1187;25580;-76
2022/07/16 08:49:04;;;;;;;;;8.25;7.00;;;28.86;97762.54;;;;119012;1188;25353;-76
2022/07/16 08:51:33;;;;;;;;;6.25;6.25;;;28.83;97762.88;;;;118970;1189;24899;-76
2022/07/16 08:54:11;;;;;;;;;7.25;7.25;;;28.83;97759.86;;;;119165;1187;25317;-75
2022/07/16 08:56:42;;;;;;;;;8.75;7.75;;;28.87;97757.21;;;;119212;1187;25442;-75
2022/07/16 08:59:10;;;;;;;;;7.25;6.50;;;28.84;97761.13;;;;119226;1186;25529;-74
2022/07/16 09:01:38;;;;;;;;;8.75;7.50;;;28.81;97759.60;;;;119000;1188;26438;-77
2022/07/16 09:04:07;;;;;;;;;6.50;6.50;;;28.80;97763.40;;;;118932;1188;25271;-71
2022/07/16 09:06:34;;;;;;;;;9.25;7.00;;;28.77;97761.04;;;;119198;1187;26085;-73
2022/07/16 09:09:03;;;;;;;;;9.25;9.25;;;28.67;97756.24;;;;119237;1187;25910;-75
2022/07/16 09:11:33;;;;;;;;;8.50;6.75;;;28.67;97761.48;;;;119487;1186;25952;-77
2022/07/16 09:14:13;;;;;;;;;12.25;8.00;;;29.13;97758.83;;;;119636;1188;24853;-74
2022/07/16 09:16:51;;;;;;;;;8.25;8.25;;;29.78;97751.22;;;;119274;1189;25578;-71
2022/07/16 09:19:22;;;;;;;;;8.00;7.25;;;29.99;97748.70;;;;119102;1187;25163;-74
2022/07/16 09:22:04;;;;;;;;;9.25;7.75;;;29.72;97753.23;;;;119015;1189;24946;-70
2022/07/16 09:24:44;;;;;;;;;9.25;8.50;;;29.51;97753.10;;;;119256;1187;25926;-69
2022/07/16 09:27:19;;;;;;;;;12.00;9.00;;;29.32;97757.13;;;;119235;1187;25096;-68
2022/07/16 09:30:03;;;;;;;;;6.00;6.00;;;29.22;97752.39;;;;119008;1189;25104;-70
2022/07/16 09:32:39;;;;;;;;;9.75;8.25;;;29.37;97751.13;;;;119252;1187;24824;-68
2022/07/16 09:35:11;;;;;;;;;6.75;6.75;;;29.33;97755.95;;;;119223;1186;25429;-65
2022/07/16 09:37:46;;;;;;;;;4.75;4.75;;;29.21;97753.84;;;;119251;1187;26336;-70
2022/07/16 09:40:15;;;;;;;;;10.00;6.50;;;28.97;97749.97;;;;119008;1189;24970;-70
2022/07/16 09:42:43;;;;;;;;;7.75;5.00;;;29.00;97749.85;;;;119051;1187;26163;-70
2022/07/16 09:45:19;;;;;;;;;6.00;5.75;;;28.94;97742.34;;;;119242;1187;25285;-68
2022/07/16 09:47:48;;;;;;;;;7.25;5.50;;;28.82;97737.56;;;;119262;1187;24848;-69
2022/07/16 09:50:16;;;;;;;;;8.25;7.25;;;28.83;97732.92;;;;119260;1187;24783;-68
2022/07/16 09:52:44;;;;;;;;;6.50;6.50;;;28.76;97730.56;;;;119058;1187;25648;-71
2022/07/16 09:55:12;;;;;;;;;5.50;5.50;;;28.73;97735.77;;;;119246;1187;25729;-71
2022/07/16 09:57:41;;;;;;;;;7.00;7.00;;;28.71;97731.14;;;;119277;1187;24874;-71
2022/07/16 10:00:10;;;;;;;;;11.75;9.00;;;28.72;97733.48;;;;119037;1188;25087;-71
2022/07/16 10:02:38;;;;;;;;;11.50;8.00;;;28.74;97723.43;;;;119251;1187;24721;-71
2022/07/16 10:05:06;;;;;;;;;13.75;7.75;;;28.75;97724.86;;;;119231;1187;25664;-71
2022/07/16 10:07:34;;;;;;;;;8.75;5.75;;;28.75;97719.88;;;;119249;1187;25483;-72
2022/07/16 10:10:02;;;;;;;;;7.25;7.25;;;28.76;97725.41;;;;119265;1187;25349;-71
2022/07/16 10:12:31;;;;;;;;;7.50;6.75;;;28.77;97725.55;;;;119244;1187;25451;-72
2022/07/16 10:15:00;;;;;;;;;9.00;7.50;;;28.80;97731.58;;;;119008;1189;25709;-68
2022/07/16 10:17:34;;;;;;;;;10.00;8.75;;;28.84;97724.37;;;;119254;1187;25620;-71
2022/07/16 10:20:11;;;;;;;;;8.00;8.00;;;28.87;97729.31;;;;119249;1187;25079;-69
2022/07/16 10:22:42;;;;;;;;;8.75;8.75;;;28.89;97729.77;;;;119045;1188;25100;-68
2022/07/16 10:25:26;;;;;;;;;7.33;6.67;;;28.91;97721.98;;;;119261;1187;25022;-72
2022/07/16 10:27:54;;;;;;;;;11.00;10.33;;;28.91;97724.74;;;;119269;1186;25600;-70
2022/07/16 10:30:21;;;;;;;;;9.50;7.75;;;28.91;97719.57;;;;119265;1188;24983;-71
2022/07/16 10:33:02;;;;;;;;;8.00;8.00;;;28.93;97726.45;;;;119243;1187;25786;-71
2022/07/16 10:35:40;;;;;;;;;10.25;8.50;;;28.91;97711.89;;;;119251;1188;25568;-71
2022/07/16 10:38:24;;;;;;;;;8.50;8.50;;;28.90;97718.80;;;;119276;1187;24755;-73
2022/07/16 10:41:13;;;;;;;;;9.00;9.00;;;28.90;97710.30;;;;118997;1188;24809;-74
2022/07/16 10:43:43;;;;;;;;;10.00;9.25;;;28.93;97710.19;;;;119254;1187;26315;-74
2022/07/16 10:46:25;;;;;;;;;7.25;7.25;;;28.94;97714.46;;;;119024;1189;25360;-74
2022/07/16 10:48:56;;;;;;;;;9.00;9.00;;;29.01;97711.61;;;;119246;1187;25452;-72
2022/07/16 10:51:25;;;;;;;;;12.50;10.00;;;29.03;97706.11;;;;119023;1188;25759;-72
2022/07/16 10:54:01;;;;;;;;;10.25;8.25;;;29.00;97704.89;;;;119271;1187;25466;-71
2022/07/16 10:56:49;;;;;;;;;8.67;8.33;;;29.02;97712.23;;;;119235;1188;25409;-71
2022/07/16 10:59:41;;;;;;;;;8.50;6.50;;;29.05;97708.79;;;;119260;1186;25582;-66
2022/07/16 11:02:14;;;;;;;;;12.50;10.00;;;29.15;97704.91;;;;119253;1187;25325;-67
2022/07/16 11:04:47;;;;;;;;;7.25;7.25;;;29.15;97710.08;;;;119242;1188;25382;-66
2022/07/16 11:07:17;;;;;;;;;8.75;8.75;;;29.15;97708.46;;;;119249;1186;25845;-67
2022/07/16 11:09:48;;;;;;;;;11.00;9.67;;;29.14;97703.96;;;;119243;1188;24905;-66
2022/07/16 11:12:25;;;;;;;;;7.50;7.50;;;29.14;97705.51;;;;119264;1187;26245;-66
2022/07/16 11:14:54;;;;;;;;;7.50;7.50;;;29.15;97705.16;;;;119163;1188;25549;-65
2022/07/16 11:17:25;;;;;;;;;6.75;6.75;;;29.15;97704.97;;;;119203;1187;25742;-66
2022/07/16 11:19:57;;;;;;;;;5.25;5.25;;;29.15;97708.81;;;;119211;1188;25448;-67
2022/07/16 11:22:30;;;;;;;;;8.00;7.75;;;29.16;97705.19;;;;119238;1187;26037;-66
2022/07/16 11:24:59;;;;;;;;;9.00;8.50;;;29.17;97713.48;;;;119233;1188;24948;-65
2022/07/16 11:27:32;;;;;;;;;7.75;7.75;;;29.17;97706.70;;;;119266;1187;25470;-66
2022/07/16 11:30:03;;;;;;;;;8.50;8.50;;;29.16;97705.98;;;;119250;1187;25682;-67
2022/07/16 11:32:44;;;;;;;;;9.50;9.50;;;29.16;97713.27;;;;119273;1187;25833;-66
2022/07/16 11:35:14;;;;;;;;;11.50;9.50;;;29.19;97714.82;;;;118927;1190;25011;-66
2022/07/16 11:37:48;;;;;;;;;9.00;9.00;;;29.20;97708.91;;;;118969;1190;24854;-67
2022/07/16 11:40:32;;;;;;;;;10.00;8.00;;;29.23;97711.48;;;;118993;1189;26818;-67
2022/07/16 11:43:00;;;;;;;;;9.00;7.50;;;29.27;97699.11;;;;118951;1188;25559;-66
2022/07/16 11:45:34;;;;;;;;;6.67;6.67;;;29.27;97699.81;;;;118997;1190;25863;-66
2022/07/16 11:48:14;;;;;;;;;8.75;7.00;;;29.27;97706.89;;;;118908;1190;25890;-66
2022/07/16 11:50:43;;;;;;;;;6.50;6.50;;;29.29;97699.20;;;;118996;1190;25539;-66
2022/07/16 11:53:14;;;;;;;;;10.25;9.75;;;29.28;97700.23;;;;118982;1189;24729;-66
2022/07/16 11:55:45;;;;;;;;;6.50;5.25;;;29.28;97691.48;;;;118990;1190;24771;-66
2022/07/16 11:58:17;;;;;;;;;8.50;8.50;;;29.28;97704.59;;;;119001;1189;25317;-65
2022/07/16 12:00:46;;;;;;;;;7.25;6.00;;;29.29;97702.39;;;;119000;1189;25907;-66
2022/07/16 12:03:15;;;;;;;;;9.00;8.00;;;29.28;97701.91;;;;118989;1187;24849;-66
2022/07/16 12:05:44;;;;;;;;;8.75;8.75;;;29.29;97697.23;;;;119112;1188;25481;-66
2022/07/16 12:08:12;;;;;;;;;10.00;9.00;;;29.31;97695.33;;;;119131;1188;25173;-66
2022/07/16 12:11:05;;;;;;;;;7.25;5.25;;;29.37;97689.60;;;;119118;1187;25578;-67
2022/07/16 12:13:54;;;;;;;;;8.50;8.50;;;29.39;97689.02;;;;119139;1187;26042;-66
2022/07/16 12:16:25;;;;;;;;;8.25;8.25;;;29.48;97694.17;;;;119142;1188;25519;-66
2022/07/16 12:19:12;;;;;;;;;5.00;4.50;;;29.46;97699.89;;;;119142;1188;25652;-66
2022/07/16 12:21:41;;;;;;;;;9.25;9.00;;;29.47;97698.11;;;;119139;1188;25283;-66
2022/07/16 12:24:09;;;;;;;;;7.25;6.75;;;29.42;97699.05;;;;118969;1189;25845;-66
2022/07/16 12:26:40;;;;;;;;;8.75;7.75;;;29.40;97700.49;;;;119114;1186;25055;-66
2022/07/16 12:29:11;;;;;;;;;9.25;9.00;;;29.40;97702.29;;;;119135;1187;26171;-67
2022/07/16 12:31:39;;;;;;;;;9.25;9.25;;;29.40;97697.15;;;;119123;1187;25001;-65
2022/07/16 12:34:07;;;;;;;;;10.25;8.25;;;29.40;97693.29;;;;119145;1188;25157;-65
2022/07/16 12:36:38;;;;;;;;;8.25;7.75;;;29.39;97698.88;;;;119147;1187;25728;-65
2022/07/16 12:39:08;;;;;;;;;10.75;10.75;;;29.40;97702.17;;;;119157;1188;24741;-66